Terminal Aerodrome Forecast
Issued by NWS

Home | Current Version | Previous Version | Text Only | Print | Product List | Glossary On
Versions: 1 2 3 4 5 6 7 8 9 10 11 12 13 14 15 16 17 18 19 20
000
FTUS43 KABR 030200 AAA
TAFPIR
TAF AMD
KPIR 030218Z 0302/0324 14010KT P6SM BKN080
     FM030600 34015KT 3SM -SN OVC025
     FM030800 34020G30KT 1/2SM SN BLSN OVC010
     FM031000 34030G40KT 1/4SM BLSN OVC007
     FM031800 33025G35KT 1SM BLSN OVC015=

USA.gov is the U.S. government's official web portal to all federal, state and local government web resources and services.